createdAt,value
2023-01-11T00:02:04.020Z,13.20
2023-01-11T00:04:31.439Z,17.65
2023-01-11T00:06:58.659Z,18.05
2023-01-11T00:09:25.979Z,18.42
2023-01-11T00:11:53.418Z,14.52
2023-01-11T00:14:20.653Z,7.45
2023-01-11T00:16:47.900Z,21.58
2023-01-11T00:19:15.148Z,15.63
2023-01-11T00:21:42.318Z,18.05
2023-01-11T00:24:09.537Z,15.45
2023-01-11T00:26:36.787Z,9.65
2023-01-11T00:29:04.045Z,16.67
2023-01-11T00:31:31.288Z,19.88
2023-01-11T00:33:58.943Z,27.40
2023-01-11T00:36:26.131Z,13.55
2023-01-11T00:38:55.279Z,12.73
2023-01-11T00:41:41.543Z,17.98
2023-01-11T00:44:27.721Z,18.25
2023-01-11T00:47:13.845Z,17.77
2023-01-11T00:49:41.060Z,11.23
2023-01-11T00:52:09.732Z,13.48
2023-01-11T00:54:37.215Z,18.63
2023-01-11T00:57:04.542Z,9.32
2023-01-11T00:59:31.888Z,14.55
2023-01-11T01:01:59.136Z,14.13
2023-01-11T01:04:26.515Z,19.70
2023-01-11T01:06:53.732Z,20.33
2023-01-11T01:09:21.007Z,14.05
2023-01-11T01:11:48.186Z,14.80
2023-01-11T01:14:30.919Z,19.30
2023-01-11T01:16:58.193Z,15.48
2023-01-11T01:19:27.724Z,20.10
2023-01-11T01:21:55.221Z,12.05
2023-01-11T01:24:22.413Z,12.93
2023-01-11T01:26:49.748Z,15.65
2023-01-11T01:29:16.943Z,17.45
2023-01-11T01:31:44.260Z,19.17
2023-01-11T01:34:11.513Z,16.70
2023-01-11T01:36:38.792Z,17.20
2023-01-11T01:39:05.968Z,14.52
2023-01-11T01:41:33.232Z,27.27
2023-01-11T01:44:00.410Z,17.50
2023-01-11T01:46:27.844Z,22.15
2023-01-11T01:48:55.098Z,14.25
2023-01-11T01:51:22.313Z,14.32
2023-01-11T01:53:49.568Z,21.35
2023-01-11T01:56:16.789Z,25.80
2023-01-11T01:58:44.009Z,21.75
2023-01-11T02:01:30.239Z,17.88
2023-01-11T02:03:58.656Z,15.15
2023-01-11T02:06:25.938Z,26.63
2023-01-11T02:08:53.377Z,17.92
2023-01-11T02:11:29.895Z,10.13
2023-01-11T02:13:57.107Z,19.52
2023-01-11T02:16:24.344Z,22.65
2023-01-11T02:18:51.659Z,17.33
2023-01-11T02:21:18.837Z,17.25
2023-01-11T02:23:46.176Z,23.65
2023-01-11T02:26:13.507Z,31.30
2023-01-11T02:28:40.800Z,19.95
2023-01-11T02:31:08.002Z,26.02
2023-01-11T02:33:35.494Z,23.15
2023-01-11T02:36:02.690Z,21.35
2023-01-11T02:38:29.954Z,19.15
2023-01-11T02:40:57.279Z,34.83
2023-01-11T02:43:43.367Z,21.00
2023-01-11T02:46:10.696Z,28.98
2023-01-11T02:48:37.976Z,22.67
2023-01-11T02:51:05.311Z,23.40
2023-01-11T02:53:32.521Z,28.77
2023-01-11T02:55:59.799Z,18.20
2023-01-11T02:58:26.964Z,22.73
2023-01-11T03:00:55.788Z,23.40
2023-01-11T03:03:24.826Z,35.28
2023-01-11T03:05:52.141Z,22.50
2023-01-11T03:08:19.302Z,16.85
2023-01-11T03:10:46.511Z,19.58
2023-01-11T03:13:13.690Z,16.08
2023-01-11T03:15:40.903Z,35.83
2023-01-11T03:18:08.343Z,30.02
2023-01-11T03:20:35.566Z,29.63
2023-01-11T03:23:02.739Z,27.55
2023-01-11T03:25:29.958Z,18.25
2023-01-11T03:27:57.200Z,30.17
2023-01-11T03:30:24.416Z,23.88
2023-01-11T03:32:51.613Z,17.30
2023-01-11T03:35:18.845Z,37.72
2023-01-11T03:37:46.045Z,35.83
2023-01-11T03:40:13.328Z,29.73
2023-01-11T03:43:00.459Z,21.80
2023-01-11T03:45:27.741Z,24.90
2023-01-11T03:47:54.958Z,11.27
2023-01-11T03:50:22.179Z,34.88
2023-01-11T03:52:49.319Z,34.83
2023-01-11T03:55:16.677Z,36.33
2023-01-11T03:57:43.957Z,30.52
2023-01-11T04:00:11.157Z,33.97
2023-01-11T04:02:38.354Z,29.50
2023-01-11T04:05:05.628Z,31.92
2023-01-11T04:07:32.824Z,28.95
2023-01-11T04:10:00.145Z,20.60
2023-01-11T04:12:27.468Z,33.97
2023-01-11T04:14:54.768Z,27.48
2023-01-11T04:17:21.943Z,37.55
2023-01-11T04:19:49.174Z,17.65
2023-01-11T04:22:16.397Z,27.27
2023-01-11T04:24:43.869Z,20.35
2023-01-11T04:27:11.075Z,13.85
2023-01-11T04:29:38.527Z,34.85
2023-01-11T04:32:05.794Z,20.70
2023-01-11T04:34:33.040Z,33.78
2023-01-11T04:37:00.275Z,33.97
2023-01-11T04:39:27.540Z,39.10
2023-01-11T04:42:13.639Z,28.45
2023-01-11T04:44:40.876Z,26.00
2023-01-11T04:47:08.050Z,20.58
2023-01-11T04:49:35.274Z,24.67
2023-01-11T04:52:02.540Z,41.85
2023-01-11T04:54:29.856Z,35.50
2023-01-11T04:56:57.067Z,30.60
2023-01-11T04:59:24.439Z,20.05
2023-01-11T05:01:51.631Z,25.90
2023-01-11T05:04:18.885Z,38.58
2023-01-11T05:06:46.208Z,30.23
2023-01-11T05:09:13.510Z,28.50
2023-01-11T05:11:40.764Z,31.25
2023-01-11T05:14:08.013Z,21.90
2023-01-11T05:16:35.309Z,29.35
2023-01-11T05:19:02.690Z,30.42
2023-01-11T05:21:31.271Z,17.00
2023-01-11T05:23:58.502Z,27.23
2023-01-11T05:26:26.853Z,25.98
2023-01-11T05:28:54.080Z,21.10
2023-01-11T05:31:21.311Z,41.33
2023-01-11T05:33:48.561Z,30.15
2023-01-11T05:36:15.789Z,24.63
2023-01-11T05:38:43.113Z,26.17
2023-01-11T05:41:10.316Z,41.08
2023-01-11T05:43:57.517Z,35.10
2023-01-11T05:46:24.763Z,31.17
2023-01-11T05:48:51.972Z,27.50
2023-01-11T05:51:19.256Z,34.38
2023-01-11T05:53:46.583Z,37.92
2023-01-11T05:56:13.868Z,33.58
2023-01-11T05:58:41.155Z,23.73
2023-01-11T06:01:08.389Z,37.28
2023-01-11T06:03:35.682Z,39.30
2023-01-11T06:06:02.990Z,30.95
2023-01-11T06:08:30.177Z,27.05
2023-01-11T06:10:57.452Z,39.67
2023-01-11T06:13:27.784Z,49.85
2023-01-11T06:15:55.120Z,27.95
2023-01-11T06:18:22.315Z,27.58
2023-01-11T06:20:49.746Z,44.40
2023-01-11T06:23:17.077Z,28.95
2023-01-11T06:25:45.356Z,17.50
2023-01-11T06:28:12.719Z,38.50
2023-01-11T06:30:40.057Z,44.05
2023-01-11T06:33:07.408Z,30.98
2023-01-11T06:35:34.683Z,23.60
2023-01-11T06:38:02.143Z,27.17
2023-01-11T06:40:29.478Z,27.42
2023-01-11T06:42:56.780Z,26.52
2023-01-11T06:45:24.096Z,30.42
2023-01-11T06:47:51.300Z,27.10
2023-01-11T06:50:18.647Z,40.47
2023-01-11T06:52:45.875Z,26.48
2023-01-11T06:55:13.104Z,25.90
2023-01-11T06:57:40.335Z,24.00
2023-01-11T07:00:08.519Z,34.13
2023-01-11T07:02:35.825Z,39.50
2023-01-11T07:05:03.159Z,35.97
2023-01-11T07:07:30.485Z,22.77
2023-01-11T07:09:57.757Z,28.05
2023-01-11T07:12:25.004Z,25.92
2023-01-11T07:14:52.421Z,24.08
2023-01-11T07:17:19.669Z,19.27
2023-01-11T07:19:47.021Z,25.15
2023-01-11T07:22:16.065Z,32.30
2023-01-11T07:24:43.354Z,24.35
2023-01-11T07:27:10.600Z,32.60
2023-01-11T07:29:37.861Z,29.75
2023-01-11T07:32:05.220Z,31.55
2023-01-11T07:34:32.524Z,30.38
2023-01-11T07:36:59.903Z,20.88
2023-01-11T07:39:42.263Z,44.50
2023-01-11T07:42:29.200Z,37.88
2023-01-11T07:44:56.435Z,19.80
2023-01-11T07:47:23.618Z,28.23
2023-01-11T07:49:50.927Z,27.98
2023-01-11T07:52:18.352Z,29.95
2023-01-11T07:54:45.515Z,15.98
2023-01-11T07:57:12.790Z,23.67
2023-01-11T07:59:39.951Z,32.28
2023-01-11T08:02:10.225Z,23.38
2023-01-11T08:04:37.485Z,21.25
2023-01-11T08:07:04.840Z,25.75
2023-01-11T08:09:32.138Z,14.43
2023-01-11T08:12:18.157Z,32.60
2023-01-11T08:14:45.470Z,22.50
2023-01-11T08:17:12.863Z,21.90
2023-01-11T08:19:40.304Z,27.88
2023-01-11T08:22:07.578Z,18.42
2023-01-11T08:24:34.850Z,34.83
2023-01-11T08:27:02.150Z,15.68
2023-01-11T08:29:29.446Z,16.08
2023-01-11T08:31:57.435Z,20.17
2023-01-11T08:34:25.942Z,8.20
2023-01-11T08:36:53.311Z,14.45
2023-01-11T08:39:20.588Z,14.60
2023-01-11T08:41:47.883Z,24.80
2023-01-11T08:44:22.364Z,26.15
2023-01-11T08:49:27.514Z,24.45
2023-01-11T08:51:54.760Z,25.45
2023-01-11T08:54:22.155Z,19.85
2023-01-11T08:56:49.525Z,32.10
2023-01-11T08:59:16.836Z,37.40
2023-01-11T09:01:44.225Z,28.65
2023-01-11T09:04:23.834Z,17.67
2023-01-11T09:06:52.341Z,45.38
2023-01-11T09:09:19.567Z,32.58
2023-01-11T09:11:57.242Z,32.92
2023-01-11T09:14:24.629Z,18.67
2023-01-11T09:16:51.951Z,20.48
2023-01-11T09:19:19.229Z,21.83
2023-01-11T09:21:46.771Z,25.42
2023-01-11T09:24:14.127Z,17.00
2023-01-11T09:26:44.491Z,25.80
2023-01-11T09:29:11.835Z,29.60
2023-01-11T09:31:39.261Z,23.90
2023-01-11T09:34:08.194Z,25.98
2023-01-11T09:36:36.377Z,23.70
2023-01-11T09:39:08.378Z,25.23
2023-01-11T09:41:35.676Z,28.75
2023-01-11T09:44:04.691Z,25.50
2023-01-11T09:46:32.015Z,31.00
2023-01-11T09:48:59.800Z,46.60
2023-01-11T09:51:27.123Z,13.32
2023-01-11T09:53:54.620Z,24.35
2023-01-11T09:56:24.695Z,26.05
2023-01-11T09:58:52.614Z,36.50
2023-01-11T10:01:19.839Z,31.70
2023-01-11T10:03:48.975Z,26.75
2023-01-11T10:06:18.544Z,29.10
2023-01-11T10:18:27.917Z,26.23
2023-01-11T10:18:43.076Z,25.80
2023-01-11T10:20:03.616Z,15.63
2023-01-11T10:22:33.673Z,22.35
2023-01-11T10:25:01.638Z,20.83
2023-01-11T10:27:30.093Z,21.45
2023-01-11T10:30:16.297Z,22.33
2023-01-11T10:32:46.613Z,19.77
2023-01-11T10:35:20.947Z,13.05
2023-01-11T10:38:01.989Z,23.08
2023-01-11T10:40:40.590Z,27.45
2023-01-11T10:43:09.188Z,24.48
2023-01-11T10:45:37.462Z,28.10
2023-01-11T10:48:04.920Z,23.80
2023-01-11T10:50:32.225Z,21.08
2023-01-11T10:53:00.085Z,23.67
2023-01-11T10:55:27.320Z,21.52
2023-01-11T10:58:01.422Z,20.42
2023-01-11T11:00:31.630Z,26.05
2023-01-11T11:02:58.878Z,21.33
2023-01-11T11:05:26.210Z,18.73
2023-01-11T11:07:53.432Z,24.65
2023-01-11T11:10:21.899Z,18.35
2023-01-11T11:12:49.122Z,21.98
2023-01-11T11:15:16.485Z,23.08
2023-01-11T11:17:43.655Z,19.55
2023-01-11T11:20:10.910Z,17.65
2023-01-11T11:22:38.151Z,14.07
2023-01-11T11:25:05.412Z,14.95
2023-01-11T11:27:32.671Z,14.60
2023-01-11T11:30:00.040Z,16.60
2023-01-11T11:32:27.269Z,24.45
2023-01-11T11:34:54.586Z,14.52
2023-01-11T11:37:21.830Z,22.80
2023-01-11T11:39:49.229Z,12.40
2023-01-11T11:42:16.537Z,18.65
2023-01-11T11:44:43.832Z,13.60
2023-01-11T11:47:11.008Z,12.80
2023-01-11T11:49:39.883Z,12.02
2023-01-11T11:52:07.240Z,20.15
2023-01-11T11:54:34.583Z,17.60
2023-01-11T11:57:01.857Z,15.10
2023-01-11T11:59:29.344Z,13.55
2023-01-11T12:01:56.610Z,11.60
2023-01-11T12:04:24.035Z,12.90
2023-01-11T12:06:51.350Z,11.07
2023-01-11T12:09:18.597Z,17.02
2023-01-11T12:11:45.784Z,14.02
2023-01-11T12:14:13.655Z,11.98
2023-01-11T12:16:41.319Z,10.43
2023-01-11T12:19:08.645Z,20.42
2023-01-11T12:21:36.434Z,13.40
2023-01-11T12:24:03.716Z,15.88
2023-01-11T12:26:31.063Z,12.27
2023-01-11T12:28:58.554Z,21.00
2023-01-11T12:31:25.768Z,11.88
2023-01-11T12:33:53.022Z,5.15
2023-01-11T12:36:20.513Z,10.60
2023-01-11T12:38:48.006Z,9.77
2023-01-11T12:41:15.175Z,19.65
2023-01-11T12:43:42.499Z,10.95
2023-01-11T12:46:10.037Z,12.00
2023-01-11T12:48:37.378Z,18.63
2023-01-11T12:51:04.597Z,16.65
2023-01-11T12:53:31.927Z,9.18
2023-01-11T12:55:59.106Z,14.40
2023-01-11T12:58:26.494Z,21.33
2023-01-11T13:00:53.683Z,17.00
2023-01-11T13:03:21.100Z,9.02
2023-01-11T13:05:48.328Z,19.70
2023-01-11T13:08:15.597Z,14.68
2023-01-11T13:10:43.135Z,17.52
2023-01-11T13:13:10.579Z,25.38
2023-01-11T13:15:42.064Z,19.52
2023-01-11T13:18:09.363Z,21.17
2023-01-11T13:20:48.641Z,23.05
2023-01-11T13:23:20.953Z,21.67
2023-01-11T13:25:48.241Z,12.43
2023-01-11T13:28:20.088Z,22.77
2023-01-11T13:30:51.079Z,19.40
2023-01-11T13:33:18.345Z,24.92
2023-01-11T13:35:45.505Z,17.52
2023-01-11T13:38:14.912Z,13.15
2023-01-11T13:40:42.133Z,19.38
2023-01-11T13:43:09.590Z,21.80
2023-01-11T13:45:36.821Z,23.23
2023-01-11T13:48:04.025Z,17.92
2023-01-11T13:50:31.258Z,15.63
2023-01-11T13:53:01.213Z,12.18
2023-01-11T13:55:29.882Z,9.38
2023-01-11T13:57:57.118Z,10.18
2023-01-11T14:00:24.426Z,3.70
2023-01-11T14:02:51.660Z,6.55
2023-01-11T14:05:18.958Z,3.05
2023-01-11T14:07:46.174Z,4.50
2023-01-11T14:10:13.484Z,4.32
2023-01-11T14:12:40.645Z,4.70
2023-01-11T14:15:08.296Z,4.13
2023-01-11T14:17:36.643Z,2.17
2023-01-11T14:20:03.892Z,6.85
2023-01-11T14:22:31.136Z,5.40
2023-01-11T14:24:58.455Z,6.60
2023-01-11T14:27:25.742Z,11.00
2023-01-11T14:29:53.040Z,8.48
2023-01-11T14:32:20.252Z,11.82
2023-01-11T14:34:47.557Z,8.65
2023-01-11T14:37:14.786Z,8.25
2023-01-11T14:39:42.082Z,5.10
2023-01-11T14:42:09.479Z,6.70
2023-01-11T14:44:36.841Z,9.40
2023-01-11T14:47:04.017Z,12.15
2023-01-11T14:49:31.239Z,8.00
2023-01-11T14:51:58.410Z,14.57
2023-01-11T14:54:25.705Z,15.73
2023-01-11T14:56:53.092Z,11.43
2023-01-11T14:59:20.406Z,12.35
2023-01-11T15:01:47.680Z,8.98
2023-01-11T15:04:14.974Z,22.90
2023-01-11T15:06:42.281Z,20.38
2023-01-11T15:09:09.527Z,12.40
2023-01-11T15:11:36.955Z,17.83
2023-01-11T15:14:04.439Z,17.77
2023-01-11T15:16:50.587Z,30.98
2023-01-11T15:19:17.849Z,21.02
2023-01-11T15:21:45.038Z,23.23
2023-01-11T15:24:12.370Z,29.52
2023-01-11T15:26:39.596Z,20.75
2023-01-11T15:29:06.869Z,30.08
2023-01-11T15:31:34.594Z,23.70
2023-01-11T15:34:02.005Z,31.88
2023-01-11T15:36:29.222Z,27.85
2023-01-11T15:38:56.522Z,33.00
2023-01-11T15:41:42.541Z,31.52
2023-01-11T15:44:09.769Z,34.05
2023-01-11T15:46:55.408Z,39.38
2023-01-11T15:49:22.675Z,42.03
2023-01-11T15:51:49.898Z,48.67
2023-01-11T15:54:17.173Z,41.13
2023-01-11T15:56:44.482Z,46.65
2023-01-11T15:59:11.722Z,46.72
2023-01-11T16:01:38.916Z,37.17
2023-01-11T16:04:06.242Z,35.70
2023-01-11T16:06:33.825Z,43.92
2023-01-11T16:09:01.077Z,24.98
2023-01-11T16:11:28.293Z,28.35
2023-01-11T16:13:55.562Z,26.58
2023-01-11T16:16:22.875Z,15.35
2023-01-11T16:18:50.215Z,28.20
2023-01-11T16:21:18.108Z,25.23
2023-01-11T16:23:45.661Z,19.58
2023-01-11T16:26:12.885Z,19.08
2023-01-11T16:28:41.601Z,26.65
2023-01-11T16:31:08.868Z,15.38
2023-01-11T16:33:36.230Z,24.20
2023-01-11T16:36:03.487Z,15.90
2023-01-11T16:38:30.779Z,25.30
2023-01-11T16:40:58.582Z,23.40
2023-01-11T16:43:25.863Z,14.13
2023-01-11T16:45:56.217Z,11.40
2023-01-11T16:48:23.666Z,12.38
2023-01-11T16:50:50.871Z,7.28
2023-01-11T16:53:18.137Z,6.28
2023-01-11T16:55:45.648Z,8.68
2023-01-11T16:58:12.926Z,8.82
2023-01-11T17:00:40.349Z,5.13
2023-01-11T17:03:08.259Z,9.13
2023-01-11T17:05:35.431Z,3.20
2023-01-11T17:08:02.663Z,7.55
2023-01-11T17:10:30.020Z,3.70
2023-01-11T17:12:57.255Z,9.43
2023-01-11T17:15:24.436Z,14.90
2023-01-11T17:17:51.674Z,10.75
2023-01-11T17:20:18.937Z,13.02
2023-01-11T17:22:46.401Z,8.02
2023-01-11T17:25:13.662Z,16.38
2023-01-11T17:27:40.916Z,14.23
2023-01-11T17:30:08.098Z,16.30
2023-01-11T17:32:36.984Z,14.00
2023-01-11T17:35:04.253Z,19.00
2023-01-11T17:37:31.549Z,13.27
2023-01-11T17:39:58.807Z,15.60
2023-01-11T17:42:44.650Z,19.65
2023-01-11T17:45:15.047Z,16.92
2023-01-11T17:47:42.321Z,26.70
2023-01-11T17:50:09.576Z,20.95
2023-01-11T17:52:38.949Z,19.30
2023-01-11T17:55:11.011Z,25.58
2023-01-11T17:57:38.246Z,20.20
2023-01-11T18:00:05.553Z,19.38
2023-01-11T18:02:32.915Z,21.23
2023-01-11T18:05:00.728Z,16.05
2023-01-11T18:07:28.003Z,12.05
2023-01-11T18:09:55.296Z,13.88
2023-01-11T18:12:22.759Z,10.32
2023-01-11T18:14:50.000Z,9.90
2023-01-11T18:17:17.236Z,9.85
2023-01-11T18:19:44.532Z,12.13
2023-01-11T18:22:11.742Z,10.23
2023-01-11T18:24:43.365Z,10.23
2023-01-11T18:27:10.928Z,12.20
2023-01-11T18:29:38.211Z,9.82
2023-01-11T18:32:05.757Z,9.82
2023-01-11T18:34:32.960Z,8.20
2023-01-11T18:37:00.267Z,6.05
2023-01-11T18:39:27.504Z,5.55
2023-01-11T18:42:07.365Z,10.73
2023-01-11T18:44:35.282Z,15.30
2023-01-11T18:47:02.582Z,17.13
2023-01-11T18:49:29.874Z,16.70
2023-01-11T18:51:57.162Z,14.57
2023-01-11T18:54:24.391Z,19.40
2023-01-11T18:56:51.655Z,18.65
2023-01-11T18:59:18.948Z,27.27
2023-01-11T19:01:56.505Z,29.77
2023-01-11T19:04:31.896Z,32.50
2023-01-11T19:06:59.155Z,22.42
2023-01-11T19:09:26.475Z,24.70
2023-01-11T19:11:53.794Z,36.17
2023-01-11T19:14:21.100Z,40.35
2023-01-11T19:16:48.312Z,20.75
2023-01-11T19:19:15.648Z,41.95
2023-01-11T19:21:42.870Z,23.50
2023-01-11T19:24:10.135Z,25.70
2023-01-11T19:26:37.404Z,15.98
2023-01-11T19:29:04.753Z,23.13
2023-01-11T19:31:33.116Z,30.25
2023-01-11T19:34:00.387Z,32.13
2023-01-11T19:36:31.969Z,24.95
2023-01-11T19:38:59.265Z,26.85
2023-01-11T19:41:27.411Z,37.92
2023-01-11T19:43:54.812Z,23.88
2023-01-11T19:46:31.226Z,22.17
2023-01-11T19:48:59.441Z,19.70
2023-01-11T19:51:26.668Z,25.05
2023-01-11T19:53:53.895Z,19.88
2023-01-11T19:56:21.139Z,20.70
2023-01-11T19:58:48.384Z,28.17
2023-01-11T20:01:15.703Z,20.95
2023-01-11T20:03:44.569Z,20.30
2023-01-11T20:06:11.841Z,22.95
2023-01-11T20:08:40.561Z,21.20
2023-01-11T20:11:07.847Z,23.88
2023-01-11T20:13:35.168Z,27.48
2023-01-11T20:16:02.455Z,23.55
2023-01-11T20:18:29.738Z,24.80
2023-01-11T20:20:56.934Z,26.35
2023-01-11T20:23:25.356Z,25.65
2023-01-11T20:25:52.675Z,28.95
2023-01-11T20:28:20.440Z,31.63
2023-01-11T20:30:47.807Z,33.70
2023-01-11T20:33:15.058Z,24.55
2023-01-11T20:35:42.603Z,27.00
2023-01-11T20:38:12.377Z,32.70
2023-01-11T20:40:39.586Z,20.50
2023-01-11T20:43:06.883Z,24.95
2023-01-11T20:45:34.921Z,32.28
2023-01-11T20:48:02.284Z,34.22
2023-01-11T20:50:32.308Z,25.63
2023-01-11T20:53:00.609Z,26.80
2023-01-11T20:55:27.875Z,35.83
2023-01-11T20:57:55.223Z,37.75
2023-01-11T21:00:22.489Z,51.22
2023-01-11T21:02:49.717Z,31.77
2023-01-11T21:05:16.986Z,29.10
2023-01-11T21:07:44.271Z,39.58
2023-01-11T21:10:11.489Z,43.92
2023-01-11T21:12:41.661Z,37.83
2023-01-11T21:15:10.768Z,31.15
2023-01-11T21:17:38.062Z,32.65
2023-01-11T21:20:05.310Z,34.75
2023-01-11T21:22:32.484Z,31.13
2023-01-11T21:25:00.924Z,36.63
2023-01-11T21:27:28.173Z,44.40
2023-01-11T21:29:55.413Z,52.03
2023-01-11T21:32:22.791Z,39.25
2023-01-11T21:34:50.041Z,50.22
2023-01-11T21:37:17.831Z,31.05
2023-01-11T21:39:45.062Z,45.45
2023-01-11T21:42:12.273Z,32.83
2023-01-11T21:44:39.523Z,39.50
2023-01-11T21:47:06.697Z,41.42
2023-01-11T21:49:33.953Z,31.70
2023-01-11T21:52:01.167Z,48.22
2023-01-11T21:54:28.444Z,42.13
2023-01-11T21:56:55.628Z,33.25
2023-01-11T21:59:23.355Z,28.45
2023-01-11T22:01:50.558Z,40.90
2023-01-11T22:04:17.821Z,35.22
2023-01-11T22:06:47.424Z,24.67
2023-01-11T22:09:14.922Z,37.63
2023-01-11T22:11:42.202Z,34.95
2023-01-11T22:14:09.653Z,36.78
2023-01-11T22:16:37.053Z,21.02
2023-01-11T22:19:06.098Z,40.00
2023-01-11T22:21:33.269Z,29.55
2023-01-11T22:24:00.603Z,29.75
2023-01-11T22:26:27.874Z,23.50
2023-01-11T22:29:13.790Z,23.40
2023-01-11T22:31:41.089Z,33.10
2023-01-11T22:34:08.380Z,28.23
2023-01-11T22:36:35.611Z,18.20
2023-01-11T22:39:02.794Z,37.50
2023-01-11T22:41:30.120Z,28.45
2023-01-11T22:43:57.319Z,24.92
2023-01-11T22:46:24.574Z,26.90
2023-01-11T22:48:51.810Z,27.13
2023-01-11T22:51:19.066Z,18.80
2023-01-11T22:53:46.325Z,29.15
2023-01-11T22:56:13.568Z,34.17
2023-01-11T22:58:40.791Z,24.48
2023-01-11T23:01:08.046Z,35.33
2023-01-11T23:03:35.263Z,25.52
2023-01-11T23:06:02.617Z,16.42
2023-01-11T23:08:29.863Z,28.08
2023-01-11T23:10:57.124Z,25.52
2023-01-11T23:13:43.002Z,22.17
2023-01-11T23:16:10.524Z,27.80
2023-01-11T23:18:37.744Z,13.70
2023-01-11T23:21:05.052Z,26.83
2023-01-11T23:23:32.267Z,15.82
2023-01-11T23:25:59.568Z,30.42
2023-01-11T23:28:29.830Z,28.70
2023-01-11T23:30:57.780Z,26.30
2023-01-11T23:33:24.984Z,37.17
2023-01-11T23:35:52.265Z,40.25
2023-01-11T23:38:19.473Z,47.63
2023-01-11T23:41:05.487Z,42.72
2023-01-11T23:43:32.721Z,46.08
2023-01-11T23:46:19.890Z,52.78
2023-01-11T23:48:47.337Z,41.33
2023-01-11T23:51:14.648Z,55.60
2023-01-11T23:53:42.041Z,61.65
2023-01-11T23:56:09.469Z,62.88
2023-01-11T23:58:36.790Z,39.20
